sensor_id;sensor_type;location;lat;lon;timestamp;P1;durP1;ratioP1;P2;durP2;ratioP2
50683;SDS011;36654;45.042;38.994;2022-10-28T00:00:34;19.90;;;11.93;;
50683;SDS011;36654;45.042;38.994;2022-10-28T00:03:00;20.55;;;13.30;;
50683;SDS011;36654;45.042;38.994;2022-10-28T00:05:26;21.10;;;11.23;;
50683;SDS011;36654;45.042;38.994;2022-10-28T00:07:53;17.05;;;11.02;;
50683;SDS011;36654;45.042;38.994;2022-10-28T00:10:18;19.58;;;11.20;;
50683;SDS011;36654;45.042;38.994;2022-10-28T00:12:44;19.48;;;11.55;;
50683;SDS011;36654;45.042;38.994;2022-10-28T00:15:10;18.15;;;11.07;;
50683;SDS011;36654;45.042;38.994;2022-10-28T00:17:35;20.13;;;11.35;;
50683;SDS011;36654;45.042;38.994;2022-10-28T00:20:01;18.83;;;12.43;;
50683;SDS011;36654;45.042;38.994;2022-10-28T00:22:27;23.15;;;12.13;;
50683;SDS011;36654;45.042;38.994;2022-10-28T00:24:53;22.70;;;11.90;;
50683;SDS011;36654;45.042;38.994;2022-10-28T00:27:19;22.42;;;12.18;;
50683;SDS011;36654;45.042;38.994;2022-10-28T00:29:44;21.25;;;12.60;;
50683;SDS011;36654;45.042;38.994;2022-10-28T00:32:10;20.52;;;12.85;;
50683;SDS011;36654;45.042;38.994;2022-10-28T00:34:35;20.30;;;11.82;;
50683;SDS011;36654;45.042;38.994;2022-10-28T00:37:01;25.23;;;14.73;;
50683;SDS011;36654;45.042;38.994;2022-10-28T00:39:27;20.33;;;12.15;;
50683;SDS011;36654;45.042;38.994;2022-10-28T00:41:57;25.77;;;13.25;;
50683;SDS011;36654;45.042;38.994;2022-10-28T00:47:36;20.55;;;12.18;;
50683;SDS011;36654;45.042;38.994;2022-10-28T00:55:49;25.67;;;12.43;;
50683;SDS011;36654;45.042;38.994;2022-10-28T00:58:16;21.70;;;12.68;;
50683;SDS011;36654;45.042;38.994;2022-10-28T01:00:45;21.77;;;12.40;;
50683;SDS011;36654;45.042;38.994;2022-10-28T01:03:10;23.73;;;12.90;;
50683;SDS011;36654;45.042;38.994;2022-10-28T01:05:37;21.63;;;12.50;;
50683;SDS011;36654;45.042;38.994;2022-10-28T01:08:06;23.65;;;12.93;;
50683;SDS011;36654;45.042;38.994;2022-10-28T01:13:22;21.05;;;12.82;;
50683;SDS011;36654;45.042;38.994;2022-10-28T01:16:01;23.15;;;12.77;;
50683;SDS011;36654;45.042;38.994;2022-10-28T01:21:40;26.65;;;12.85;;
50683;SDS011;36654;45.042;38.994;2022-10-28T01:25:11;21.80;;;12.45;;
50683;SDS011;36654;45.042;38.994;2022-10-28T01:30:03;22.63;;;13.10;;
50683;SDS011;36654;45.042;38.994;2022-10-28T01:46:34;23.95;;;12.93;;
50683;SDS011;36654;45.042;38.994;2022-10-28T01:49:22;23.70;;;13.18;;
50683;SDS011;36654;45.042;38.994;2022-10-28T01:51:57;25.70;;;13.50;;
50683;SDS011;36654;45.042;38.994;2022-10-28T01:54:28;23.08;;;13.25;;
50683;SDS011;36654;45.042;38.994;2022-10-28T01:56:58;32.58;;;16.05;;
50683;SDS011;36654;45.042;38.994;2022-10-28T01:59:27;22.65;;;13.57;;
50683;SDS011;36654;45.042;38.994;2022-10-28T02:01:54;26.65;;;15.02;;
50683;SDS011;36654;45.042;38.994;2022-10-28T02:04:20;27.50;;;14.88;;
50683;SDS011;36654;45.042;38.994;2022-10-28T02:06:47;25.15;;;14.50;;
50683;SDS011;36654;45.042;38.994;2022-10-28T02:12:18;27.67;;;14.50;;
50683;SDS011;36654;45.042;38.994;2022-10-28T02:25:51;28.10;;;14.95;;
50683;SDS011;36654;45.042;38.994;2022-10-28T02:28:48;27.58;;;14.02;;
50683;SDS011;36654;45.042;38.994;2022-10-28T02:31:52;28.77;;;16.15;;
50683;SDS011;36654;45.042;38.994;2022-10-28T02:34:23;24.95;;;14.07;;
50683;SDS011;36654;45.042;38.994;2022-10-28T02:36:54;28.35;;;15.43;;
50683;SDS011;36654;45.042;38.994;2022-10-28T02:39:36;28.73;;;14.82;;
50683;SDS011;36654;45.042;38.994;2022-10-28T02:42:06;27.98;;;14.50;;
50683;SDS011;36654;45.042;38.994;2022-10-28T02:44:40;27.10;;;14.95;;
50683;SDS011;36654;45.042;38.994;2022-10-28T02:47:21;28.42;;;15.57;;
50683;SDS011;36654;45.042;38.994;2022-10-28T02:49:52;26.98;;;14.43;;
50683;SDS011;36654;45.042;38.994;2022-10-28T02:52:23;29.73;;;15.63;;
50683;SDS011;36654;45.042;38.994;2022-10-28T02:54:52;25.17;;;14.10;;
50683;SDS011;36654;45.042;38.994;2022-10-28T02:57:23;29.02;;;15.07;;
50683;SDS011;36654;45.042;38.994;2022-10-28T02:59:53;29.73;;;16.15;;
50683;SDS011;36654;45.042;38.994;2022-10-28T03:02:20;25.10;;;14.93;;
50683;SDS011;36654;45.042;38.994;2022-10-28T03:04:46;28.17;;;14.75;;
50683;SDS011;36654;45.042;38.994;2022-10-28T03:07:12;35.03;;;14.50;;
50683;SDS011;36654;45.042;38.994;2022-10-28T03:09:37;26.13;;;14.60;;
50683;SDS011;36654;45.042;38.994;2022-10-28T03:12:03;23.35;;;13.90;;
50683;SDS011;36654;45.042;38.994;2022-10-28T03:14:29;24.30;;;14.07;;
50683;SDS011;36654;45.042;38.994;2022-10-28T03:16:55;26.25;;;14.80;;
50683;SDS011;36654;45.042;38.994;2022-10-28T03:19:20;30.13;;;15.80;;
50683;SDS011;36654;45.042;38.994;2022-10-28T03:21:46;25.60;;;14.25;;
50683;SDS011;36654;45.042;38.994;2022-10-28T03:24:11;27.52;;;14.77;;
50683;SDS011;36654;45.042;38.994;2022-10-28T03:26:37;26.75;;;13.32;;
50683;SDS011;36654;45.042;38.994;2022-10-28T03:29:03;25.50;;;13.25;;
50683;SDS011;36654;45.042;38.994;2022-10-28T03:31:28;24.05;;;13.25;;
50683;SDS011;36654;45.042;38.994;2022-10-28T03:33:54;26.33;;;13.77;;
50683;SDS011;36654;45.042;38.994;2022-10-28T03:36:19;27.23;;;14.30;;
50683;SDS011;36654;45.042;38.994;2022-10-28T03:38:45;23.95;;;13.23;;
50683;SDS011;36654;45.042;38.994;2022-10-28T03:41:11;23.23;;;13.32;;
50683;SDS011;36654;45.042;38.994;2022-10-28T03:43:36;29.20;;;14.65;;
50683;SDS011;36654;45.042;38.994;2022-10-28T03:46:02;26.25;;;13.80;;
50683;SDS011;36654;45.042;38.994;2022-10-28T03:48:28;28.02;;;14.15;;
50683;SDS011;36654;45.042;38.994;2022-10-28T03:50:54;26.77;;;14.18;;
50683;SDS011;36654;45.042;38.994;2022-10-28T03:53:20;24.80;;;13.75;;
50683;SDS011;36654;45.042;38.994;2022-10-28T03:55:56;29.90;;;14.77;;
50683;SDS011;36654;45.042;38.994;2022-10-28T03:58:26;28.10;;;14.05;;
50683;SDS011;36654;45.042;38.994;2022-10-28T04:00:53;27.50;;;14.23;;
50683;SDS011;36654;45.042;38.994;2022-10-28T04:03:19;26.38;;;14.23;;
50683;SDS011;36654;45.042;38.994;2022-10-28T04:05:46;29.23;;;14.98;;
50683;SDS011;36654;45.042;38.994;2022-10-28T04:08:12;28.33;;;15.90;;
50683;SDS011;36654;45.042;38.994;2022-10-28T04:10:39;24.83;;;13.98;;
50683;SDS011;36654;45.042;38.994;2022-10-28T04:13:06;26.60;;;14.77;;
50683;SDS011;36654;45.042;38.994;2022-10-28T04:15:32;29.02;;;14.68;;
50683;SDS011;36654;45.042;38.994;2022-10-28T04:17:57;30.20;;;14.30;;
50683;SDS011;36654;45.042;38.994;2022-10-28T04:20:23;31.52;;;15.10;;
50683;SDS011;36654;45.042;38.994;2022-10-28T04:22:50;29.10;;;15.50;;
50683;SDS011;36654;45.042;38.994;2022-10-28T04:25:16;31.45;;;16.27;;
50683;SDS011;36654;45.042;38.994;2022-10-28T04:27:42;27.60;;;14.50;;
50683;SDS011;36654;45.042;38.994;2022-10-28T04:30:09;31.02;;;15.45;;
50683;SDS011;36654;45.042;38.994;2022-10-28T04:32:38;29.10;;;14.60;;
50683;SDS011;36654;45.042;38.994;2022-10-28T04:35:08;29.20;;;15.75;;
50683;SDS011;36654;45.042;38.994;2022-10-28T04:37:35;28.73;;;15.52;;
50683;SDS011;36654;45.042;38.994;2022-10-28T04:40:01;27.92;;;15.15;;
50683;SDS011;36654;45.042;38.994;2022-10-28T04:42:27;28.02;;;14.75;;
50683;SDS011;36654;45.042;38.994;2022-10-28T04:44:53;30.73;;;15.00;;
50683;SDS011;36654;45.042;38.994;2022-10-28T04:47:19;25.85;;;14.90;;
50683;SDS011;36654;45.042;38.994;2022-10-28T04:49:44;25.98;;;14.65;;
50683;SDS011;36654;45.042;38.994;2022-10-28T04:52:10;33.38;;;14.57;;
50683;SDS011;36654;45.042;38.994;2022-10-28T04:54:39;26.35;;;14.02;;
50683;SDS011;36654;45.042;38.994;2022-10-28T04:57:04;29.25;;;14.98;;
50683;SDS011;36654;45.042;38.994;2022-10-28T04:59:30;30.38;;;15.20;;
50683;SDS011;36654;45.042;38.994;2022-10-28T05:01:56;27.83;;;13.73;;
50683;SDS011;36654;45.042;38.994;2022-10-28T05:04:22;27.30;;;14.10;;
50683;SDS011;36654;45.042;38.994;2022-10-28T05:06:48;25.00;;;13.45;;
50683;SDS011;36654;45.042;38.994;2022-10-28T05:09:13;26.33;;;13.93;;
50683;SDS011;36654;45.042;38.994;2022-10-28T05:11:39;27.35;;;14.52;;
50683;SDS011;36654;45.042;38.994;2022-10-28T05:14:05;26.20;;;14.55;;
50683;SDS011;36654;45.042;38.994;2022-10-28T05:16:31;22.73;;;13.13;;
50683;SDS011;36654;45.042;38.994;2022-10-28T05:18:57;26.83;;;14.63;;
50683;SDS011;36654;45.042;38.994;2022-10-28T05:21:26;26.85;;;14.43;;
50683;SDS011;36654;45.042;38.994;2022-10-28T05:23:51;26.77;;;12.60;;
50683;SDS011;36654;45.042;38.994;2022-10-28T05:26:17;25.02;;;14.07;;
50683;SDS011;36654;45.042;38.994;2022-10-28T05:28:43;24.70;;;13.77;;
50683;SDS011;36654;45.042;38.994;2022-10-28T05:31:14;29.50;;;13.43;;
50683;SDS011;36654;45.042;38.994;2022-10-28T05:33:39;20.95;;;12.88;;
50683;SDS011;36654;45.042;38.994;2022-10-28T05:36:06;24.27;;;12.25;;
50683;SDS011;36654;45.042;38.994;2022-10-28T05:38:32;25.95;;;13.88;;
50683;SDS011;36654;45.042;38.994;2022-10-28T05:40:58;20.00;;;12.60;;
50683;SDS011;36654;45.042;38.994;2022-10-28T05:43:24;24.98;;;12.82;;
50683;SDS011;36654;45.042;38.994;2022-10-28T05:45:52;21.25;;;12.73;;
50683;SDS011;36654;45.042;38.994;2022-10-28T05:48:19;27.50;;;13.40;;
50683;SDS011;36654;45.042;38.994;2022-10-28T05:50:44;27.90;;;13.60;;
50683;SDS011;36654;45.042;38.994;2022-10-28T05:53:10;24.88;;;13.30;;
50683;SDS011;36654;45.042;38.994;2022-10-28T05:55:36;24.15;;;13.20;;
50683;SDS011;36654;45.042;38.994;2022-10-28T05:58:01;22.77;;;12.82;;
50683;SDS011;36654;45.042;38.994;2022-10-28T06:00:27;24.60;;;14.18;;
50683;SDS011;36654;45.042;38.994;2022-10-28T06:03:14;25.58;;;12.10;;
50683;SDS011;36654;45.042;38.994;2022-10-28T06:05:42;22.23;;;12.70;;
50683;SDS011;36654;45.042;38.994;2022-10-28T06:08:09;22.42;;;12.25;;
50683;SDS011;36654;45.042;38.994;2022-10-28T06:10:36;25.67;;;12.93;;
50683;SDS011;36654;45.042;38.994;2022-10-28T06:13:02;23.63;;;13.00;;
50683;SDS011;36654;45.042;38.994;2022-10-28T06:15:28;26.15;;;12.52;;
50683;SDS011;36654;45.042;38.994;2022-10-28T06:17:54;32.05;;;14.32;;
50683;SDS011;36654;45.042;38.994;2022-10-28T06:20:19;22.52;;;12.38;;
50683;SDS011;36654;45.042;38.994;2022-10-28T06:25:14;25.48;;;13.88;;
50683;SDS011;36654;45.042;38.994;2022-10-28T06:27:40;26.52;;;12.77;;
50683;SDS011;36654;45.042;38.994;2022-10-28T06:30:12;27.75;;;12.85;;
50683;SDS011;36654;45.042;38.994;2022-10-28T06:32:38;24.67;;;12.65;;
50683;SDS011;36654;45.042;38.994;2022-10-28T06:35:03;20.73;;;12.32;;
50683;SDS011;36654;45.042;38.994;2022-10-28T06:37:29;24.35;;;11.88;;
50683;SDS011;36654;45.042;38.994;2022-10-28T06:39:58;18.08;;;11.20;;
50683;SDS011;36654;45.042;38.994;2022-10-28T06:42:24;19.25;;;10.82;;
50683;SDS011;36654;45.042;38.994;2022-10-28T06:44:50;20.98;;;11.25;;
50683;SDS011;36654;45.042;38.994;2022-10-28T06:47:16;21.33;;;11.35;;
50683;SDS011;36654;45.042;38.994;2022-10-28T06:49:42;22.05;;;12.02;;
50683;SDS011;36654;45.042;38.994;2022-10-28T06:52:08;21.20;;;11.38;;
50683;SDS011;36654;45.042;38.994;2022-10-28T06:54:33;18.73;;;10.88;;
50683;SDS011;36654;45.042;38.994;2022-10-28T06:59:27;15.30;;;10.07;;
50683;SDS011;36654;45.042;38.994;2022-10-28T07:01:53;18.67;;;9.10;;
50683;SDS011;36654;45.042;38.994;2022-10-28T07:04:22;17.08;;;9.63;;
50683;SDS011;36654;45.042;38.994;2022-10-28T07:06:53;12.52;;;8.32;;
50683;SDS011;36654;45.042;38.994;2022-10-28T07:09:19;12.55;;;7.50;;
50683;SDS011;36654;45.042;38.994;2022-10-28T07:11:48;15.32;;;8.27;;
50683;SDS011;36654;45.042;38.994;2022-10-28T07:14:14;16.25;;;9.18;;
50683;SDS011;36654;45.042;38.994;2022-10-28T07:16:40;17.05;;;8.77;;
50683;SDS011;36654;45.042;38.994;2022-10-28T07:19:09;15.75;;;9.20;;
50683;SDS011;36654;45.042;38.994;2022-10-28T07:21:41;15.98;;;8.63;;
50683;SDS011;36654;45.042;38.994;2022-10-28T07:26:32;13.23;;;7.50;;
50683;SDS011;36654;45.042;38.994;2022-10-28T07:28:57;12.85;;;7.40;;
50683;SDS011;36654;45.042;38.994;2022-10-28T07:31:23;14.10;;;7.20;;
50683;SDS011;36654;45.042;38.994;2022-10-28T07:33:52;11.98;;;6.88;;
50683;SDS011;36654;45.042;38.994;2022-10-28T07:36:24;11.32;;;6.68;;
50683;SDS011;36654;45.042;38.994;2022-10-28T07:38:59;10.98;;;7.68;;
50683;SDS011;36654;45.042;38.994;2022-10-28T07:41:27;13.93;;;7.85;;
50683;SDS011;36654;45.042;38.994;2022-10-28T07:44:07;16.02;;;7.60;;
50683;SDS011;36654;45.042;38.994;2022-10-28T07:46:32;15.68;;;7.72;;
50683;SDS011;36654;45.042;38.994;2022-10-28T07:48:59;15.48;;;7.95;;
50683;SDS011;36654;45.042;38.994;2022-10-28T07:51:28;12.32;;;7.18;;
50683;SDS011;36654;45.042;38.994;2022-10-28T07:53:59;14.60;;;7.28;;
50683;SDS011;36654;45.042;38.994;2022-10-28T07:56:35;10.95;;;7.03;;
50683;SDS011;36654;45.042;38.994;2022-10-28T07:59:01;9.32;;;6.20;;
50683;SDS011;36654;45.042;38.994;2022-10-28T08:01:30;14.05;;;6.55;;
50683;SDS011;36654;45.042;38.994;2022-10-28T08:03:59;12.95;;;6.75;;
50683;SDS011;36654;45.042;38.994;2022-10-28T08:06:27;11.18;;;7.43;;
50683;SDS011;36654;45.042;38.994;2022-10-28T08:08:53;10.90;;;6.68;;
50683;SDS011;36654;45.042;38.994;2022-10-28T08:11:20;13.55;;;7.72;;
50683;SDS011;36654;45.042;38.994;2022-10-28T08:13:48;11.23;;;6.55;;
50683;SDS011;36654;45.042;38.994;2022-10-28T08:16:14;10.13;;;5.90;;
50683;SDS011;36654;45.042;38.994;2022-10-28T08:18:40;10.45;;;6.80;;
50683;SDS011;36654;45.042;38.994;2022-10-28T08:21:07;10.70;;;7.25;;
50683;SDS011;36654;45.042;38.994;2022-10-28T08:23:34;12.10;;;6.10;;
50683;SDS011;36654;45.042;38.994;2022-10-28T08:26:00;11.65;;;7.10;;
50683;SDS011;36654;45.042;38.994;2022-10-28T08:28:26;11.63;;;5.85;;
50683;SDS011;36654;45.042;38.994;2022-10-28T08:30:51;8.45;;;5.90;;
50683;SDS011;36654;45.042;38.994;2022-10-28T08:33:17;9.30;;;5.38;;
50683;SDS011;36654;45.042;38.994;2022-10-28T08:35:48;9.02;;;5.82;;
50683;SDS011;36654;45.042;38.994;2022-10-28T08:38:14;10.43;;;5.80;;
50683;SDS011;36654;45.042;38.994;2022-10-28T08:48:27;7.55;;;4.57;;
50683;SDS011;36654;45.042;38.994;2022-10-28T08:50:58;8.38;;;5.03;;
50683;SDS011;36654;45.042;38.994;2022-10-28T08:53:34;6.35;;;4.47;;
50683;SDS011;36654;45.042;38.994;2022-10-28T08:56:09;7.53;;;4.25;;
50683;SDS011;36654;45.042;38.994;2022-10-28T08:58:41;6.85;;;4.53;;
50683;SDS011;36654;45.042;38.994;2022-10-28T09:01:13;8.07;;;4.40;;
50683;SDS011;36654;45.042;38.994;2022-10-28T09:03:45;8.38;;;4.93;;
50683;SDS011;36654;45.042;38.994;2022-10-28T09:06:14;5.70;;;4.25;;
50683;SDS011;36654;45.042;38.994;2022-10-28T09:08:43;6.43;;;4.50;;
50683;SDS011;36654;45.042;38.994;2022-10-28T09:14:24;7.55;;;4.22;;
50683;SDS011;36654;45.042;38.994;2022-10-28T09:19:39;7.15;;;4.53;;
50683;SDS011;36654;45.042;38.994;2022-10-28T09:36:32;3.80;;;2.72;;
50683;SDS011;36654;45.042;38.994;2022-10-28T09:39:02;5.50;;;2.30;;
50683;SDS011;36654;45.042;38.994;2022-10-28T09:41:35;2.05;;;1.80;;
50683;SDS011;36654;45.042;38.994;2022-10-28T09:46:54;2.88;;;2.10;;
50683;SDS011;36654;45.042;38.994;2022-10-28T09:49:24;2.22;;;2.03;;
50683;SDS011;36654;45.042;38.994;2022-10-28T09:51:58;3.50;;;2.10;;
50683;SDS011;36654;45.042;38.994;2022-10-28T09:54:48;3.25;;;2.50;;
50683;SDS011;36654;45.042;38.994;2022-10-28T09:57:16;3.95;;;2.67;;
50683;SDS011;36654;45.042;38.994;2022-10-28T09:59:42;4.00;;;2.55;;
50683;SDS011;36654;45.042;38.994;2022-10-28T10:02:29;3.83;;;2.45;;
50683;SDS011;36654;45.042;38.994;2022-10-28T10:04:55;3.90;;;2.50;;
50683;SDS011;36654;45.042;38.994;2022-10-28T10:07:27;2.80;;;2.13;;
50683;SDS011;36654;45.042;38.994;2022-10-28T10:10:02;2.90;;;2.58;;
50683;SDS011;36654;45.042;38.994;2022-10-28T10:12:41;3.35;;;2.35;;
50683;SDS011;36654;45.042;38.994;2022-10-28T10:15:06;4.82;;;2.88;;
50683;SDS011;36654;45.042;38.994;2022-10-28T10:17:44;5.13;;;2.88;;
50683;SDS011;36654;45.042;38.994;2022-10-28T10:20:13;5.68;;;3.45;;
50683;SDS011;36654;45.042;38.994;2022-10-28T10:22:44;7.68;;;3.25;;
50683;SDS011;36654;45.042;38.994;2022-10-28T10:27:54;5.35;;;3.53;;
50683;SDS011;36654;45.042;38.994;2022-10-28T10:30:37;5.55;;;3.25;;
50683;SDS011;36654;45.042;38.994;2022-10-28T10:33:19;10.95;;;4.53;;
50683;SDS011;36654;45.042;38.994;2022-10-28T10:36:22;7.15;;;4.47;;
50683;SDS011;36654;45.042;38.994;2022-10-28T10:38:48;5.07;;;3.60;;
50683;SDS011;36654;45.042;38.994;2022-10-28T10:41:37;6.90;;;3.80;;
50683;SDS011;36654;45.042;38.994;2022-10-28T10:46:44;8.80;;;4.50;;
50683;SDS011;36654;45.042;38.994;2022-10-28T10:49:12;6.88;;;4.18;;
50683;SDS011;36654;45.042;38.994;2022-10-28T10:51:57;7.97;;;3.83;;
50683;SDS011;36654;45.042;38.994;2022-10-28T10:54:26;4.72;;;3.85;;
50683;SDS011;36654;45.042;38.994;2022-10-28T10:57:08;5.90;;;3.85;;
50683;SDS011;36654;45.042;38.994;2022-10-28T10:59:39;6.07;;;4.38;;
50683;SDS011;36654;45.042;38.994;2022-10-28T11:02:25;6.45;;;3.42;;
50683;SDS011;36654;45.042;38.994;2022-10-28T11:04:56;4.68;;;3.30;;
50683;SDS011;36654;45.042;38.994;2022-10-28T11:07:25;6.45;;;3.80;;
50683;SDS011;36654;45.042;38.994;2022-10-28T11:09:52;5.75;;;3.42;;
50683;SDS011;36654;45.042;38.994;2022-10-28T11:12:26;7.78;;;4.40;;
50683;SDS011;36654;45.042;38.994;2022-10-28T11:14:59;10.10;;;3.75;;
50683;SDS011;36654;45.042;38.994;2022-10-28T11:17:28;5.20;;;3.90;;
50683;SDS011;36654;45.042;38.994;2022-10-28T11:19:55;7.20;;;4.03;;
50683;SDS011;36654;45.042;38.994;2022-10-28T11:27:58;4.63;;;3.95;;
50683;SDS011;36654;45.042;38.994;2022-10-28T11:39:55;7.60;;;4.40;;
50683;SDS011;36654;45.042;38.994;2022-10-28T11:45:30;5.65;;;4.05;;
50683;SDS011;36654;45.042;38.994;2022-10-28T11:50:40;8.10;;;4.45;;
50683;SDS011;36654;45.042;38.994;2022-10-28T12:01:59;7.65;;;4.60;;
50683;SDS011;36654;45.042;38.994;2022-10-28T12:07:28;6.30;;;4.53;;
50683;SDS011;36654;45.042;38.994;2022-10-28T12:23:30;7.57;;;4.60;;
50683;SDS011;36654;45.042;38.994;2022-10-28T12:25:58;7.78;;;4.95;;
50683;SDS011;36654;45.042;38.994;2022-10-28T12:28:31;7.20;;;4.95;;
50683;SDS011;36654;45.042;38.994;2022-10-28T12:31:02;9.50;;;4.93;;
50683;SDS011;36654;45.042;38.994;2022-10-28T12:33:42;7.07;;;3.63;;
50683;SDS011;36654;45.042;38.994;2022-10-28T12:36:23;4.10;;;3.50;;
50683;SDS011;36654;45.042;38.994;2022-10-28T12:39:02;6.38;;;3.75;;
50683;SDS011;36654;45.042;38.994;2022-10-28T12:41:50;10.05;;;4.25;;
50683;SDS011;36654;45.042;38.994;2022-10-28T12:44:43;3.92;;;3.33;;
50683;SDS011;36654;45.042;38.994;2022-10-28T12:47:18;7.72;;;3.58;;
50683;SDS011;36654;45.042;38.994;2022-10-28T12:55:29;7.80;;;3.78;;
50683;SDS011;36654;45.042;38.994;2022-10-28T12:58:04;6.93;;;3.25;;
50683;SDS011;36654;45.042;38.994;2022-10-28T13:00:47;6.82;;;3.30;;
50683;SDS011;36654;45.042;38.994;2022-10-28T13:03:18;3.33;;;3.00;;
50683;SDS011;36654;45.042;38.994;2022-10-28T13:27:04;5.90;;;3.92;;
50683;SDS011;36654;45.042;38.994;2022-10-28T13:29:34;15.98;;;7.75;;
50683;SDS011;36654;45.042;38.994;2022-10-28T13:32:02;10.57;;;5.45;;
50683;SDS011;36654;45.042;38.994;2022-10-28T13:34:31;9.45;;;4.07;;
50683;SDS011;36654;45.042;38.994;2022-10-28T13:37:01;13.45;;;3.28;;
50683;SDS011;36654;45.042;38.994;2022-10-28T13:44:46;5.57;;;2.83;;
50683;SDS011;36654;45.042;38.994;2022-10-28T13:52:23;7.68;;;3.55;;
50683;SDS011;36654;45.042;38.994;2022-10-28T13:59:57;4.78;;;2.90;;
50683;SDS011;36654;45.042;38.994;2022-10-28T14:02:41;4.88;;;3.15;;
50683;SDS011;36654;45.042;38.994;2022-10-28T14:05:48;5.70;;;3.97;;
50683;SDS011;36654;45.042;38.994;2022-10-28T14:08:18;5.22;;;3.30;;
50683;SDS011;36654;45.042;38.994;2022-10-28T14:14:11;4.60;;;3.20;;
50683;SDS011;36654;45.042;38.994;2022-10-28T14:18:59;3.30;;;3.00;;
50683;SDS011;36654;45.042;38.994;2022-10-28T14:21:47;7.15;;;3.70;;
50683;SDS011;36654;45.042;38.994;2022-10-28T14:24:37;7.72;;;3.75;;
50683;SDS011;36654;45.042;38.994;2022-10-28T14:30:16;6.72;;;3.58;;
50683;SDS011;36654;45.042;38.994;2022-10-28T14:43:40;7.28;;;4.40;;
50683;SDS011;36654;45.042;38.994;2022-10-28T14:48:42;7.82;;;3.58;;
50683;SDS011;36654;45.042;38.994;2022-10-28T14:51:14;6.32;;;4.10;;
50683;SDS011;36654;45.042;38.994;2022-10-28T14:53:42;7.07;;;4.03;;
50683;SDS011;36654;45.042;38.994;2022-10-28T14:58:48;6.20;;;4.20;;
50683;SDS011;36654;45.042;38.994;2022-10-28T15:01:22;11.95;;;7.43;;
50683;SDS011;36654;45.042;38.994;2022-10-28T15:03:50;15.52;;;6.65;;
50683;SDS011;36654;45.042;38.994;2022-10-28T15:06:32;10.35;;;4.97;;
50683;SDS011;36654;45.042;38.994;2022-10-28T15:12:01;8.15;;;5.45;;
50683;SDS011;36654;45.042;38.994;2022-10-28T15:14:40;13.60;;;6.80;;
50683;SDS011;36654;45.042;38.994;2022-10-28T15:19:41;9.70;;;5.32;;
50683;SDS011;36654;45.042;38.994;2022-10-28T15:22:23;11.00;;;5.55;;
50683;SDS011;36654;45.042;38.994;2022-10-28T15:25:04;11.07;;;6.13;;
50683;SDS011;36654;45.042;38.994;2022-10-28T15:27:36;10.32;;;6.20;;
50683;SDS011;36654;45.042;38.994;2022-10-28T15:30:04;9.73;;;6.43;;
50683;SDS011;36654;45.042;38.994;2022-10-28T15:32:37;12.60;;;6.47;;
50683;SDS011;36654;45.042;38.994;2022-10-28T15:41:00;13.05;;;6.30;;
50683;SDS011;36654;45.042;38.994;2022-10-28T15:43:26;12.60;;;7.07;;
50683;SDS011;36654;45.042;38.994;2022-10-28T15:45:54;13.10;;;6.72;;
50683;SDS011;36654;45.042;38.994;2022-10-28T15:48:34;11.25;;;7.20;;
50683;SDS011;36654;45.042;38.994;2022-10-28T15:51:16;10.95;;;6.68;;
50683;SDS011;36654;45.042;38.994;2022-10-28T15:53:43;15.52;;;7.38;;
50683;SDS011;36654;45.042;38.994;2022-10-28T15:58:42;12.18;;;8.00;;
50683;SDS011;36654;45.042;38.994;2022-10-28T16:01:28;15.77;;;8.57;;
50683;SDS011;36654;45.042;38.994;2022-10-28T16:04:04;14.10;;;7.88;;
50683;SDS011;36654;45.042;38.994;2022-10-28T16:06:32;16.42;;;8.52;;
50683;SDS011;36654;45.042;38.994;2022-10-28T16:09:01;16.10;;;8.77;;
50683;SDS011;36654;45.042;38.994;2022-10-28T16:11:34;19.95;;;9.50;;
50683;SDS011;36654;45.042;38.994;2022-10-28T16:14:06;17.17;;;8.65;;
50683;SDS011;36654;45.042;38.994;2022-10-28T16:19:37;11.35;;;7.35;;
50683;SDS011;36654;45.042;38.994;2022-10-28T16:22:08;10.95;;;7.00;;
50683;SDS011;36654;45.042;38.994;2022-10-28T16:24:36;13.38;;;7.22;;
50683;SDS011;36654;45.042;38.994;2022-10-28T16:27:21;10.63;;;7.10;;
50683;SDS011;36654;45.042;38.994;2022-10-28T16:29:49;11.68;;;7.05;;
50683;SDS011;36654;45.042;38.994;2022-10-28T16:32:15;17.95;;;7.85;;
50683;SDS011;36654;45.042;38.994;2022-10-28T16:34:43;11.55;;;6.78;;
50683;SDS011;36654;45.042;38.994;2022-10-28T16:37:20;12.70;;;7.88;;
50683;SDS011;36654;45.042;38.994;2022-10-28T16:39:51;13.77;;;7.95;;
50683;SDS011;36654;45.042;38.994;2022-10-28T16:42:17;14.43;;;8.00;;
50683;SDS011;36654;45.042;38.994;2022-10-28T16:44:44;14.32;;;8.45;;
50683;SDS011;36654;45.042;38.994;2022-10-28T16:47:20;14.85;;;8.57;;
50683;SDS011;36654;45.042;38.994;2022-10-28T16:49:49;15.32;;;8.30;;
50683;SDS011;36654;45.042;38.994;2022-10-28T16:52:17;17.02;;;8.65;;
50683;SDS011;36654;45.042;38.994;2022-10-28T16:54:46;17.75;;;9.05;;
50683;SDS011;36654;45.042;38.994;2022-10-28T16:57:12;19.15;;;10.85;;
50683;SDS011;36654;45.042;38.994;2022-10-28T16:59:37;18.13;;;10.07;;
50683;SDS011;36654;45.042;38.994;2022-10-28T17:02:03;19.30;;;10.27;;
50683;SDS011;36654;45.042;38.994;2022-10-28T17:04:49;16.25;;;10.02;;
50683;SDS011;36654;45.042;38.994;2022-10-28T17:07:15;17.13;;;9.88;;
50683;SDS011;36654;45.042;38.994;2022-10-28T17:09:42;17.20;;;10.77;;
50683;SDS011;36654;45.042;38.994;2022-10-28T17:12:15;18.92;;;10.07;;
50683;SDS011;36654;45.042;38.994;2022-10-28T17:14:45;20.52;;;10.15;;
50683;SDS011;36654;45.042;38.994;2022-10-28T17:17:11;21.65;;;13.30;;
50683;SDS011;36654;45.042;38.994;2022-10-28T17:19:37;20.65;;;10.95;;
50683;SDS011;36654;45.042;38.994;2022-10-28T17:22:04;15.85;;;10.20;;
50683;SDS011;36654;45.042;38.994;2022-10-28T17:24:31;19.98;;;10.98;;
50683;SDS011;36654;45.042;38.994;2022-10-28T17:26:57;19.95;;;12.18;;
50683;SDS011;36654;45.042;38.994;2022-10-28T17:29:22;23.98;;;13.00;;
50683;SDS011;36654;45.042;38.994;2022-10-28T17:31:48;17.83;;;11.40;;
50683;SDS011;36654;45.042;38.994;2022-10-28T17:34:14;18.05;;;11.00;;
50683;SDS011;36654;45.042;38.994;2022-10-28T17:36:39;20.90;;;11.90;;
50683;SDS011;36654;45.042;38.994;2022-10-28T17:39:05;21.45;;;12.43;;
50683;SDS011;36654;45.042;38.994;2022-10-28T17:41:31;20.55;;;12.10;;
50683;SDS011;36654;45.042;38.994;2022-10-28T17:43:56;26.77;;;13.50;;
50683;SDS011;36654;45.042;38.994;2022-10-28T17:46:22;23.70;;;13.52;;
50683;SDS011;36654;45.042;38.994;2022-10-28T17:48:48;23.35;;;13.73;;
50683;SDS011;36654;45.042;38.994;2022-10-28T17:51:14;20.63;;;12.55;;
50683;SDS011;36654;45.042;38.994;2022-10-28T17:53:41;23.05;;;13.27;;
50683;SDS011;36654;45.042;38.994;2022-10-28T17:56:08;22.95;;;12.95;;
50683;SDS011;36654;45.042;38.994;2022-10-28T17:58:33;21.42;;;13.02;;
50683;SDS011;36654;45.042;38.994;2022-10-28T18:01:04;21.17;;;13.25;;
50683;SDS011;36654;45.042;38.994;2022-10-28T18:03:31;26.67;;;14.07;;
50683;SDS011;36654;45.042;38.994;2022-10-28T18:08:24;26.27;;;14.05;;
50683;SDS011;36654;45.042;38.994;2022-10-28T18:10:53;26.77;;;14.60;;
50683;SDS011;36654;45.042;38.994;2022-10-28T18:13:34;26.30;;;14.02;;
50683;SDS011;36654;45.042;38.994;2022-10-28T18:16:04;24.40;;;14.05;;